Saint Louis, Missouri
Current Conditions -  °F | °C
As of 2:53 PM on Friday 24 Oct 2014 (Local Time) from KCPS Reporting Station
Clear Clear  
Wind Chill: 73°   Ceiling: Unl
Heat Index: 73°   Visibility: 10mi
Dew Point: 50°   Wind: 6mph
Humidity: 44%   Direction: 260°W
Pressure: 30.04"   Gusts: NA
Location:  38.63°N, 90.24°W
Report Text: KCPS 241953Z 26005KT 10SM CLR 23/10 A3004 RMK AO2 SLP172 T02280100
Loading
Personal Weather Stations






























Interactive Weather Map
Tropical Storm Tracking
New forecast layout! Learn more

10-Day Weather Forecast

Advertisements
Track Severe Weather on mobile